forked from pbedyn/Paragliding-project
-
Notifications
You must be signed in to change notification settings - Fork 0
Expand file tree
/
Copy path2018-08-22-XFH-000-01.IGC
More file actions
5886 lines (5886 loc) · 293 KB
/
Copy path2018-08-22-XFH-000-01.IGC
File metadata and controls
5886 lines (5886 loc) · 293 KB
1
2
3
4
5
6
7
8
9
10
11
12
13
14
15
16
17
18
19
20
21
22
23
24
25
26
27
28
29
30
31
32
33
34
35
36
37
38
39
40
41
42
43
44
45
46
47
48
49
50
51
52
53
54
55
56
57
58
59
60
61
62
63
64
65
66
67
68
69
70
71
72
73
74
75
76
77
78
79
80
81
82
83
84
85
86
87
88
89
90
91
92
93
94
95
96
97
98
99
100
101
102
103
104
105
106
107
108
109
110
111
112
113
114
115
116
117
118
119
120
121
122
123
124
125
126
127
128
129
130
131
132
133
134
135
136
137
138
139
140
141
142
143
144
145
146
147
148
149
150
151
152
153
154
155
156
157
158
159
160
161
162
163
164
165
166
167
168
169
170
171
172
173
174
175
176
177
178
179
180
181
182
183
184
185
186
187
188
189
190
191
192
193
194
195
196
197
198
199
200
201
202
203
204
205
206
207
208
209
210
211
212
213
214
215
216
217
218
219
220
221
222
223
224
225
226
227
228
229
230
231
232
233
234
235
236
237
238
239
240
241
242
243
244
245
246
247
248
249
250
251
252
253
254
255
256
257
258
259
260
261
262
263
264
265
266
267
268
269
270
271
272
273
274
275
276
277
278
279
280
281
282
283
284
285
286
287
288
289
290
291
292
293
294
295
296
297
298
299
300
301
302
303
304
305
306
307
308
309
310
311
312
313
314
315
316
317
318
319
320
321
322
323
324
325
326
327
328
329
330
331
332
333
334
335
336
337
338
339
340
341
342
343
344
345
346
347
348
349
350
351
352
353
354
355
356
357
358
359
360
361
362
363
364
365
366
367
368
369
370
371
372
373
374
375
376
377
378
379
380
381
382
383
384
385
386
387
388
389
390
391
392
393
394
395
396
397
398
399
400
401
402
403
404
405
406
407
408
409
410
411
412
413
414
415
416
417
418
419
420
421
422
423
424
425
426
427
428
429
430
431
432
433
434
435
436
437
438
439
440
441
442
443
444
445
446
447
448
449
450
451
452
453
454
455
456
457
458
459
460
461
462
463
464
465
466
467
468
469
470
471
472
473
474
475
476
477
478
479
480
481
482
483
484
485
486
487
488
489
490
491
492
493
494
495
496
497
498
499
500
501
502
503
504
505
506
507
508
509
510
511
512
513
514
515
516
517
518
519
520
521
522
523
524
525
526
527
528
529
530
531
532
533
534
535
536
537
538
539
540
541
542
543
544
545
546
547
548
549
550
551
552
553
554
555
556
557
558
559
560
561
562
563
564
565
566
567
568
569
570
571
572
573
574
575
576
577
578
579
580
581
582
583
584
585
586
587
588
589
590
591
592
593
594
595
596
597
598
599
600
601
602
603
604
605
606
607
608
609
610
611
612
613
614
615
616
617
618
619
620
621
622
623
624
625
626
627
628
629
630
631
632
633
634
635
636
637
638
639
640
641
642
643
644
645
646
647
648
649
650
651
652
653
654
655
656
657
658
659
660
661
662
663
664
665
666
667
668
669
670
671
672
673
674
675
676
677
678
679
680
681
682
683
684
685
686
687
688
689
690
691
692
693
694
695
696
697
698
699
700
701
702
703
704
705
706
707
708
709
710
711
712
713
714
715
716
717
718
719
720
721
722
723
724
725
726
727
728
729
730
731
732
733
734
735
736
737
738
739
740
741
742
743
744
745
746
747
748
749
750
751
752
753
754
755
756
757
758
759
760
761
762
763
764
765
766
767
768
769
770
771
772
773
774
775
776
777
778
779
780
781
782
783
784
785
786
787
788
789
790
791
792
793
794
795
796
797
798
799
800
801
802
803
804
805
806
807
808
809
810
811
812
813
814
815
816
817
818
819
820
821
822
823
824
825
826
827
828
829
830
831
832
833
834
835
836
837
838
839
840
841
842
843
844
845
846
847
848
849
850
851
852
853
854
855
856
857
858
859
860
861
862
863
864
865
866
867
868
869
870
871
872
873
874
875
876
877
878
879
880
881
882
883
884
885
886
887
888
889
890
891
892
893
894
895
896
897
898
899
900
901
902
903
904
905
906
907
908
909
910
911
912
913
914
915
916
917
918
919
920
921
922
923
924
925
926
927
928
929
930
931
932
933
934
935
936
937
938
939
940
941
942
943
944
945
946
947
948
949
950
951
952
953
954
955
956
957
958
959
960
961
962
963
964
965
966
967
968
969
970
971
972
973
974
975
976
977
978
979
980
981
982
983
984
985
986
987
988
989
990
991
992
993
994
995
996
997
998
999
1000
AXFH000,FLIGHT:1
HFDTE220818
HFPLTPILOT:Pawel Bedynski
HFGTYGLIDERTYPE:Skywalk Cayenne 5
HFDTM100GPSDATUM:WGS84
HFRFWFIRMWAREVERSION:6.11
HFRHWHARDWAREVERSION:iPhone 7
HFFTYFRTYPE:Flyskyhy,6.11
HFGPS:Apple
HFPRSVARIO:Built-in
HFCCLCOMPETITIONCLASS:Paraglider
HFTZNTIMEZONE:2
I053638FXA3941VXA4244GSP4547CCO4850HDT
C220818102038220818000102TASK
C0000000N00000000ETAKEOFF
C4154244N02501389E00080009999999000000360000STARTAREA 98L045
C4202194N02450626E00000000003000000000360000TURNAREA 75P020
C4212304N02404398E00000000002000000000360000TURNAREA 02L027
C4212304N02404398E00000000000400000000360000FINISHAREA 02L027
C0000000N00000000ELANDING
B1021095357233N01755637EA0013600136006003000181258
B1021105357233N01755637EA0013600136006003000181258
B1021115357233N01755637EA0013600136006003000061258
B1021125357233N01755637EA0013600136006003000034258
B1021135357233N01755637EA0013600136006003000025258
B1021145357233N01755638EA0013600136006003000044258
B1021155357233N01755638EA0013600136006003000042258
B1021165357233N01755638EA0013600136006003000037258
B1021175357233N01755638EA0013600136006003000058257
B1021185357233N01755638EA0013600136006003000058257
B1021195357233N01755638EA0013600136006003000049257
B1021205357233N01755638EA0013600136006003000051257
B1021215357233N01755638EA0013600136006003000061257
B1021225357233N01755638EA0013600136006003000042257
B1021235357233N01755638EA0013600136006003000021258
B1021245357233N01755637EA0013600136006003000012269
B1021255357233N01755637EA0013600136006003000017272
B1021265357233N01755638EA0013600136006003000085300
B1021275357233N01755638EA0013600136006003000103017
B1021285357233N01755640EA0013600136006003011088014
B1021295357233N01755645EA0013600136006003023104042
B1021305357232N01755652EA0013600136006003023092043
B1021315357233N01755664EA0013600136004003030092035
B1021325357232N01755672EA0013700136004003027095042
B1021335357231N01755680EA0013800136006003027102048
B1021345357231N01755686EA0014000136006003027103051
B1021355357229N01755693EA0014200136006003027106049
B1021365357228N01755704EA0014400136012003033102047
B1021375357227N01755711EA0014600136012003033120051
B1021385357224N01755717EA0014800136012003026119052
B1021405357221N01755730EA0015900136008003025101052
B1021425357220N01755743EA0017000136008003026098055
B1021445357218N01755757EA0018000136008003027094095
B1021465357218N01755773EA0018800136012003028096092
B1021485357216N01755788EA0019800136012003028100095
B1021505357215N01755803EA0020800136012003030099100
B1021525357215N01755822EA0021700136012003036096094
B1021545357214N01755840EA0022800136012003036096095
B1021565357213N01755858EA0023600137012003030104095
B1021585357211N01755873EA0024600137016003029104104
B1022005357209N01755888EA0025900137016003029102101
B1022025357209N01755904EA0027100137012003032079098
B1022035357211N01755911EA0027700137012003031077091
B1022055357213N01755926EA0028800137012003032084082
B1022075357213N01755944EA0029800137016003034088084
B1022095357214N01755961EA0030800151016006033103092
B1022115357211N01755977EA0031700139012003034104105
B1022135357207N01755994EA0032500137012003034116102
B1022155357203N01756008EA0033300137012003032106115
B1022175357199N01756022EA0034100166012006032113109
B1022195357196N01756038EA0035500186012006032105105
B1022215357191N01756052EA0036500200012007030119105
B1022225357188N01756059EA0037000205016007031117115
B1022245357183N01756076EA0037800214016007035101105
B1022255357183N01756085EA0038300218016007030101100
B1022265357182N01756094EA0038700221016007034101100
B1022275357181N01756102EA0039100224016007034101100
B1022285357180N01756112EA0039500226016007037096100
B1022295357178N01756122EA0039800229016008036094095
B1022305357178N01756132EA0040200231016008036095093
B1022315357178N01756142EA0040500233016008036100095
B1022325357176N01756152EA0040800235016008040098099
B1022335357174N01756162EA0041200237016008039086097
B1022345357174N01756172EA0041500239016008040083091
B1022355357175N01756182EA0041900240016008039087083
B1022365357175N01756192EA0042300242016008039098087
B1022375357175N01756202EA0042700243016009039098097
B1022385357173N01756212EA0043100244016009040095097
B1022395357172N01756223EA0043400246016008039099094
B1022405357172N01756233EA0043800247016008040101098
B1022415357171N01756244EA0044400249016008000359100
B1022425357170N01756255EA0044700251016008040100100
B1022435357170N01756266EA0044900252016007040109099
B1022445357168N01756275EA0045100254016007038116107
B1022455357166N01756284EA0045300257016007037116113
B1022465357164N01756292EA0045500259016007000359115
B1022475357162N01756300EA0045700261016007031117115
B1022485357160N01756307EA0046000264016007032119115
B1022495357158N01756314EA0046300266016007000359117
B1022505357156N01756321EA0046600269016007031112118
B1022525357153N01756334EA0047300274016007000359106
B1022535357152N01756342EA0047600277016007030112106
B1022545357150N01756349EA0048000279016007028111110
B1022555357149N01756355EA0048400282016007029111110
B1022565357147N01756362EA0048800285016007032119110
B1022575357145N01756370EA0049100288016007032119116
B1022585357142N01756378EA0049400291024008033110118
B1022595357140N01756387EA0049700294024008034110109
B1023005357138N01756395EA0050000297024008035117109
B1023015357136N01756403EA0050400300024008035117114
B1023025357133N01756411EA0050700304016007035115115
B1023035357131N01756419EA0051600307016007036117114
B1023045357128N01756427EA0052000311016007037119116
B1023055357126N01756435EA0052400314016007000359118
B1023065357123N01756444EA0052700317032007037118118
B1023075357120N01756453EA0053100321032007038113117
B1023085357118N01756462EA0053400338032052038108112
B1023095357116N01756471EA0053700341032051038108107
B1023105357115N01756480EA0054000344032052039108107
B1023115357113N01756490EA0054300348032052042107107
B1023125357111N01756501EA0054500351032053042108107
B1023135357109N01756510EA0054800355032053040110107
B1023145357107N01756519EA0055100358032053039109109
B1023155357105N01756528EA0055400362032050041107109
B1023165357103N01756538EA0055700365032049000359106
B1023175357102N01756548EA0056000368032050000359106
B1023185357100N01756558EA0056300371032050041107106
B1023195357098N01756568EA0056600373032048043103106
B1023205357097N01756579EA0056800375032049000359102
B1023215357096N01756590EA0056900377032052000359102
B1023225357095N01756601EA0056900379032050043091102
B1023235357095N01756611EA0056900381032046042087093
B1023245357095N01756622EA0056700382032045043098087
B1023255357094N01756633EA0056700384032046000359096
B1023265357093N01756644EA0056600386032045000359098
B1023275357092N01756656EA0056600388032045000359098
B1023285357091N01756666EA0056700390032045040102098
B1023295357090N01756675EA0056800393032045040103101
B1023305357088N01756685EA0057100396032045040104103
B1023315357087N01756694EA0057300399032046040107104
B1023325357085N01756704EA0057700402032047000359106
B1023335357083N01756714EA0058000405032049043108106
B1023345357080N01756725EA0058400408032050043113107
B1023355357078N01756735EA0058700412032051043116112
B1023365357075N01756745EA0059000416032050043113115
B1023375357073N01756755EA0059300420032050044110112
B1023395357068N01756775EA0059900428032046000359109
B1023405357066N01756785EA0060200431032044042108109
B1023415357064N01756795EA0060500435032041042108107
B1023425357062N01756805EA0060800438032040044108107
B1023435357060N01756816EA0061100441032039045107107
B1023445357058N01756827EA0061400444032037045105106
B1023455357057N01756838EA0061600446032036045106105
B1023465357055N01756849EA0061800449032034046105106
B1023475357053N01756860EA0062100451032033048106104
B1023485357051N01756872EA0062200454032033048107106
B1023495357049N01756883EA0062400456032034048109107
B1023505357046N01756894EA0062500458032035048109108
B1023515357044N01756906EA0062700460032036049111108
B1023525357041N01756917EA0062800463032035048108111
B1023535357038N01756928EA0063000465032033046110107
B1023545357036N01756939EA0063100467032035048109109
B1023555357033N01756950EA0063200470032036048113108
B1023565357030N01756961EA0063400472032036047112112
B1023575357027N01756971EA0063500474032033046113112
B1023585357024N01756982EA0063600476032034044113111
B1023595357022N01756991EA0063700478032033045116112
B1024005357018N01757002EA0063800480032037045116115
B1024015357015N01757012EA0063800483032040000359115
B1024025357012N01757023EA0063900485032038043116115
B1024035357009N01757032EA0064000487032035000359116
B1024045357006N01757042EA0064100489032033043116115
B1024055357003N01757052EA0064200491032033043121115
B1024065357000N01757060EA0064400493032034033119119
B1024075356998N01757067EA0064600495032038033132130
B1024085356995N01757072EA0064800497032032000359129
B1024095356992N01757078EA0065100498032034031130131
B1024105356989N01757084EA0065100499032036035137135
B1024115356985N01757090EA0065100501032039035157154
B1024125356981N01757093EA0064900502032044000359180
B1024135356977N01757093EA0064700504032044000359156
B1024145356973N01757088EA0064400505032046036247156
B1024155356972N01757077EA0064100506032044041270247
B1024165356972N01757064EA0063800507032040041291270
B1024175356976N01757053EA0063400508032038045317292
B1024185356982N01757043EA0063100508032037000359318
B1024195356989N01757037EA0062800510032040000359318
B1024205356996N01757031EA0062500511032038044329318
B1024215357002N01757025EA0062200512032036000359317
B1024225357008N01757018EA0062000514032032000359322
B1024235357015N01757012EA0061800515032030000359330
B1024245357021N01757008EA0061600516032031045352330
B1024255357028N01757006EA0061400517032031000359353
B1024265357036N01757006EA0061200519032030046354353
B1024275357044N01757005EA0061100521032029045343355
B1024285357051N01757002EA0060900524032028043347344
B1024295357057N01757000EA0060800527032025043357350
B1024305357064N01757000EA0060700532032024043007358
B1024315357071N01757002EA0060600536032021045007004
B1024325357079N01757004EA0060400539032020044359002
B1024335357086N01757004EA0060200542032019046351000
B1024345357094N01757003EA0060000545032018046352352
B1024355357101N01757001EA0059700547032016053352353
B1024365357110N01757000EA0059400550032015051353351
B1024375357118N01756999EA0059100552032014051353353
B1024385357124N01756997EA0058900554032013047353345
B1024395357131N01756995EA0058600556032013047351354
B1024405357138N01756994EA0058400558032012050350352
B1024415357145N01756992EA0058200559032011052343348
B1024425357152N01756989EA0058000562032010052342344
B1024435357160N01756985EA0057700564032009052343342
B1024445357166N01756982EA0057500565032008046345343
B1024455357173N01756980EA0057200566032008046348343
B1024465357179N01756978EA0057000567032008046347349
B1024475357186N01756975EA0056800568032007048344348
B1024485357193N01756971EA0056600568032007051344345
B1024495357200N01756967EA0056400568032007051347346
B1024505357207N01756964EA0056000568032007048352348
B1024515357214N01756963EA0055700568032007046352349
B1024525357220N01756961EA0055500567032007044347351
B1024535357227N01756959EA0055300567032006046342348
B1024545357233N01756955EA0055100566032006046340343
B1024555357240N01756951EA0054900565032006047342345
B1024565357247N01756947EA0054700563032006050348342
B1024575357254N01756945EA0054500562032006050348349
B1024585357261N01756942EA0054200561032006048345349
B1024595357268N01756939EA0054000559032006046341345
B1025005357275N01756935EA0053700558032006047342342
B1025015357281N01756932EA0053600556032006049346351
B1025025357289N01756929EA0053400555032006049349344
B1025035357296N01756927EA0053200554032006049346346
B1025045357303N01756925EA0053000552032006046341347
B1025055357310N01756921EA0052800551032006046336342
B1025065357316N01756916EA0052700549032006046334336
B1025075357323N01756911EA0052600548016006047334335
B1025085357329N01756906EA0052400546016006047334334
B1025095357335N01756901EA0052200544016006049334335
B1025105357342N01756895EA0051800542016006049333334
B1025115357348N01756889EA0051500540016006050334333
B1025125357355N01756884EA0051300538016006048335334
B1025135357362N01756878EA0051000536008006048335336
B1025145357368N01756873EA0050800535008006045333335
B1025155357375N01756868EA0050600533008007045332333
B1025165357381N01756862EA0050400532008008049333332
B1025175357388N01756856EA0050100531006008049335333
B1025185357395N01756851EA0049900530006008048336330
B1025195357401N01756846EA0049700529006008048336327
B1025205357408N01756842EA0049400528006008048333336
B1025215357414N01756836EA0049200527006007050330326
B1025225357421N01756830EA0049000527006009050331332
B1025235357428N01756824EA0048800526006009051331331
B1025245357435N01756818EA0048500526006012051332331
B1025255357442N01756812EA0048300525006013052329330
B1025265357449N01756806EA0048000525006014052328329
B1025275357456N01756799EA0047800525006013053329328
B1025285357463N01756793EA0047500524006013050332327
B1025295357470N01756788EA0047200524006013050332338
B1025305357476N01756782EA0047100524006015049331328
B1025315357483N01756777EA0046900523006016049331331
B1025325357490N01756770EA0046800523008018055330337
B1025335357498N01756764EA0046700523008018056333329
B1025345357505N01756758EA0046500522008019055333333
B1025355357513N01756752EA0046400522008019055330333
B1025365357519N01756746EA0046200522008020051327324
B1025375357526N01756739EA0046100521008018051327328
B1025385357532N01756732EA0046000521008018051327326
B1025395357539N01756725EA0045900520008016051327326
B1025405357545N01756717EA0045800520006015055325326
B1025415357552N01756708EA0045700519006015055323325
B1025425357559N01756700EA0045600519006015055323322
B1025435357565N01756692EA0045500519006014053323322
B1025445357572N01756684EA0045400518006014054323322
B1025455357578N01756676EA0045300517006014055323321
B1025465357585N01756668EA0045100517006016055323325
B1025475357592N01756660EA0045000516006018055324323
B1025485357599N01756651EA0044800516008022053324321
B1025495357605N01756644EA0044500515008023053332331
B1025505357612N01756637EA0044300515008024053331339
B1025515357620N01756630EA0044100514008023057330334
B1025525357629N01756622EA0043900514008022064331343
B1025535357636N01756614EA0043600514012025064332329
B1025545357643N01756608EA0043400514012025057334336
B1025555357649N01756603EA0043200513012026044330333
B1025565357654N01756598EA0043000513012027042329330
B1025575357660N01756592EA0042900513012028049330329
B1025585357667N01756586EA0042900513008026049326328
B1025595357674N01756579EA0042800513008023055325331
B1026005357681N01756571EA0042700512008025057325327
B1026015357688N01756563EA0042500512012026057329327
B1026025357695N01756558EA0042300512012027053335329
B1026035357702N01756553EA0042100511012024052335336
B1026045357709N01756549EA0041900511012025053335333
B1026055357717N01756543EA0041800510012028057335336
B1026065357724N01756537EA0041600510012030056335335
B1026075357732N01756531EA0041500510012028056334337
B1026085357739N01756525EA0041100509012028052333335
B1026095357746N01756520EA0041000509012030052337334
B1026105357753N01756515EA0040800508012029051341337
B1026115357760N01756512EA0040600508012033051343342
B1026125357768N01756509EA0040500507012032050345344
B1026135357775N01756507EA0040300507012030051345348
B1026145357783N01756504EA0040200506012028051345346
B1026155357790N01756501EA0040000506012028053346347
B1026165357798N01756498EA0039800506012031052346348
B1026175357806N01756496EA0039600505008033052346348
B1026185357813N01756493EA0039500505008034050346348
B1026195357820N01756490EA0039300505008035050348348
B1026205357828N01756488EA0039200505008036052355349
B1026215357836N01756487EA0039100504008031052358357
B1026225357844N01756487EA0039000504008032052357001
B1026235357851N01756487EA0038900504008033052351359
B1026245357858N01756485EA0038800505012037045351356
B1026255357864N01756484EA0038800504012035045354359
B1026265357870N01756483EA0038800504012037037356356
B1026275357876N01756482EA0038900504012034037355000
B1026285357882N01756482EA0039100504008030047355359
B1026295357889N01756481EA0039200503012028048357005
B1026305357896N01756480EA0039300503012029047005022
B1026315357902N01756482EA0039400503012030043021031
B1026325357904N01756485EA0039500502012026022056054
B1026335357905N01756489EA0039700502008022022092075
B1026345357905N01756493EA0039900501008020018121109
B1026355357903N01756496EA0040200501008020016153129
B1026365357900N01756498EA0040400501008019013208158
B1026375357896N01756496EA0040600501008018026233193
B1026385357894N01756490EA0040800502012022026253224
B1026395357892N01756481EA0040900502012030033262243
B1026405357892N01756471EA0041000502012035038276258
B1026415357893N01756461EA0041000501012035041308268
B1026425357897N01756452EA0041100501016032041309299
B1026435357902N01756444EA0041100500016029042317312
B1026445357907N01756437EA0041100499016029046333315
B1026455357914N01756432EA0041200498012028048342333
B1026465357920N01756429EA0041300497012027048359349
B1026475357928N01756429EA0041500496016029048010006
B1026485357934N01756430EA0041600495016026043015021
B1026495357939N01756433EA0041700493016024043031029
B1026505357943N01756437EA0041900492016021031051038
B1026515357945N01756441EA0042200491012020025072060
B1026525357944N01756446EA0042400490012018019088092
B1026535357943N01756451EA0042600489012017019090098
B1026545357943N01756455EA0042900488012015018104115
B1026555357942N01756458EA0043100486012015013115129
B1026565357942N01756461EA0043300485008013010184138
B1026575357938N01756462EA0043500484006011019214171
B1026585357934N01756460EA0043700482006010019244204
B1026595357932N01756451EA0043800481006010031270232
B1027005357932N01756441EA0043800480006009046288252
B1027015357935N01756430EA0043900479006010048298280
B1027025357938N01756419EA0043900479008011046306296
B1027035357942N01756410EA0043900478008010045312302
B1027045357946N01756402EA0044000477006009041317309
B1027055357951N01756393EA0044100476006008043325314
B1027065357956N01756387EA0044200476006008043328324
B1027075357962N01756382EA0044600475008011044336339
B1027085357968N01756377EA0044800474008011039350346
B1027095357974N01756377EA0045100474006010042353356
B1027105357980N01756378EA0045300473006009039013013
B1027115357985N01756382EA0045400472006008041033027
B1027125357990N01756389EA0045600472006008040041045
B1027135357994N01756396EA0045700471006007040060060
B1027145357996N01756402EA0045900471006007030089078
B1027155357996N01756408EA0046000471006007021114101
B1027165357995N01756412EA0046100471006007014132124
B1027175357993N01756416EA0046300471004007017188138
B1027185357989N01756416EA0046500471004006017211171
B1027195357985N01756413EA0046700472004006023228197
B1027205357983N01756408EA0046800472004006029254215
B1027215357982N01756400EA0047000472006006034263244
B1027225357982N01756391EA0047100473006007034271255
B1027235357982N01756380EA0047200473006007041284271
B1027245357985N01756369EA0047300474006007045303280
B1027255357988N01756360EA0047400475006007045313302
B1027265357992N01756352EA0047500476006006042332310
B1027275357998N01756347EA0047800476006006042345318
B1027285358004N01756344EA0048000477006006047352343
B1027295358012N01756343EA0048300477006006050004011
B1027305358019N01756345EA0048500478006007048015029
B1027315358026N01756350EA0048600478006007048020037
B1027325358031N01756354EA0048800479006008028074026
B1027335358032N01756362EA0048900479008008030087081
B1027345358032N01756369EA0049000481008008028102098
B1027355358032N01756374EA0049100482006008020132111
B1027365358030N01756377EA0049200483006007013167130
B1027375358028N01756378EA0049400484006007015181152
B1027385358025N01756379EA0049600484006008015189174
B1027395358022N01756379EA0049800485006007016219185
B1027405358020N01756375EA0050000486006008026243204
B1027415358018N01756367EA0050100487006009038261232
B1027425358017N01756357EA0050200489006009038267250
B1027435358017N01756347EA0050200490006008038276260
B1027445358018N01756337EA0050300491006009043299271
B1027455358021N01756328EA0050300492006008044301287
B1027465358025N01756318EA0050600493006009044310304
B1027475358029N01756309EA0050700494006009045322308
B1027485358034N01756301EA0050900496006009048338324
B1027495358041N01756296EA0051100497006008048349339
B1027515358054N01756297EA0051600499008009044018016
B1027525358059N01756301EA0051800500008010039023036
B1027535358064N01756306EA0052100502008012039033038
B1027545358069N01756311EA0052400504008012036049057
B1027555358071N01756316EA0052700505008012029067069
B1027565358072N01756321EA0052900507008011017109091
B1027575358071N01756326EA0053200508008011019147114
B1027585358068N01756330EA0053400509006010019187149
B1027595358065N01756331EA0053500510006011019218170
B1028005358061N01756328EA0053700512008011029240203
B1028015358059N01756320EA0053900513008012038255228
B1028025358058N01756310EA0054100515008012038280255
B1028035358060N01756299EA0054300516008013044294279
B1028045358063N01756287EA0054500518012016048314299
B1028055358068N01756280EA0054900520012014048320321
B1028065358074N01756272EA0055100522012013048325325
B1028075358079N01756267EA0055400524012014046351335
B1028085358085N01756268EA0055700526012015039355359
B1028095358090N01756270EA0056000527012015040025001
B1028105358095N01756276EA0056200529012016040037026
B1028115358100N01756283EA0056500531012015040051052
B1028125358104N01756291EA0056700533008015033063068
B1028135358106N01756297EA0056900535008014033077079
B1028145358107N01756302EA0057100537008014022096090
B1028155358107N01756306EA0057300539008015015118111
B1028165358106N01756310EA0057500541008015010153130
B1028175358105N01756311EA0057800542008015012187152
B1028185358103N01756310EA0058000544008014012213175
B1028195358100N01756307EA0058200545008014018241198
B1028205358099N01756301EA0058300547012014027245220
B1028215358097N01756293EA0058400549008013041275235
B1028225358098N01756281EA0058500551008013041290266
B1028235358101N01756270EA0058600553008012049304284
B1028245358105N01756260EA0058700555008012047326304
B1028255358111N01756255EA0058800557012013047328321
B1028265358118N01756249EA0059000559012015047341333
B1028275358124N01756245EA0059300560012017047349343
B1028285358131N01756243EA0059500562012017046001359
B1028295358138N01756244EA0059800563012016046015014
B1028305358144N01756248EA0060100565012016045028027
B1028315358150N01756254EA0060400567012016044038049
B1028325358154N01756261EA0060600569012015034053056
B1028335358157N01756267EA0060800571008014034070077
B1028345358158N01756273EA0061000573012016026093085
B1028355358158N01756277EA0061200575012016014132105
B1028365358157N01756281EA0061400577008015014159141
B1028375358154N01756282EA0061600578008015018185165
B1028385358151N01756282EA0061800579008015018189185
B1028395358148N01756281EA0062000580008016023191203
B1028405358145N01756278EA0062100582012017020210181
B1028425358143N01756266EA0062500584012022024307246
B1028445358151N01756246EA0062900586016023045331315
B1028465358163N01756234EA0063300587016023044352344
B1028485358176N01756233EA0063900589012021043006010
B1028505358188N01756239EA0064400591012019043027032
B1028525358199N01756250EA0064800594012020040041042
B1028545358205N01756260EA0065200596012019028066067
B1028565358208N01756268EA0065500599016021017129113
B1028585358203N01756274EA0065700600008019016185167
B1029005358194N01756270EA0065800601012020025239182
B1029025358191N01756253EA0065900604012023036237230
B1029045358187N01756236EA0066100606012021035252220
B1029065358185N01756218EA0066400609012020033253238
B1029085358182N01756201EA0066700611012019035255254
B1029105358183N01756181EA0067000614012022044294276
B1029125358190N01756158EA0067500618012023048313304
B1029135358195N01756148EA0067700619012021051328318
B1029145358201N01756139EA0068000621012021051342328
B1029155358208N01756135EA0068200623012022048358354
B1029165358215N01756136EA0068500624012022048012014
B1029175358220N01756140EA0068800626012020044032044
B1029185358224N01756144EA0069300627012021033066058
B1029195358226N01756151EA0069500628012021024092085
B1029205358227N01756158EA0069700629012022024124112
B1029215358225N01756164EA0069900630012021020171132
B1029235358220N01756161EA0070300633016024027239205
B1029245358217N01756154EA0070500634016025033255223
B1029255358216N01756144EA0070800636016028033268247
B1029265358216N01756133EA0071000638016027041283266
B1029275358218N01756123EA0071200639012024044303280
B1029285358221N01756113EA0071500641012022046313301
B1029295358226N01756105EA0071800641012022044316316
B1029305358231N01756097EA0072100642016024045331332
B1029315358237N01756091EA0072400644016024045341334
B1029325358243N01756089EA0072700645016023045357358
B1029335358249N01756091EA0072900647016026043014014
B1029345358255N01756094EA0073200648012025041041030
B1029355358259N01756100EA0073400650012025032055056
B1029365358262N01756105EA0073700652012026032080082
B1029375358263N01756111EA0073900653012025023110094
B1029385358263N01756115EA0074000655016024013144115
B1029395358262N01756116EA0074200656016028009176147
B1029405358261N01756113EA0074400657016026011208162
B1029415358261N01756110EA0074600658016028011237186
B1029425358260N01756104EA0074900659016028015250205
B1029435358259N01756096EA0075100661016028037263231
B1029445358259N01756087EA0075300662016028043285251
B1029455358261N01756075EA0075500663016027043305275
B1029465358266N01756065EA0075800664016028049309301
B1029475358271N01756055EA0076000665016028051314303
B1029485358276N01756045EA0076200667016027051324331
B1029495358281N01756038EA0076500668016030048334333
B1029505358288N01756036EA0076700669016033045343348
B1029515358294N01756033EA0077000670016030044010001
B1029525358301N01756036EA0077200671016029044024024
B1029535358305N01756042EA0077300672012029041042047
B1029545358308N01756047EA0077500672016029033062059
B1029555358310N01756052EA0077600673012028017099075
B1029565358309N01756057EA0077700674012028018087108
B1029575358310N01756062EA0077700676016030018087101
B1029585358310N01756066EA0077800677016030018088113
B1029595358310N01756069EA0077900679016030008078124
B1030005358311N01756071EA0078000680016034008073120
B1030015358312N01756072EA0078200682016036006094127
B1030025358312N01756073EA0078400683016040004114137
B1030035358311N01756072EA0078500683016044001155140
B1030045358310N01756071EA0078600684016047010164150
B1030055358308N01756067EA0078700685016044009192159
B1030065358307N01756066EA0078800687016045010274177
B1030075358306N01756059EA0078900690016042037278198
B1030085358307N01756048EA0079100692016040043288259
B1030095358309N01756035EA0079200695016038043297277
B1030105358314N01756021EA0079400699016034046305292
B1030115358319N01756010EA0079500703016032046308301
B1030125358324N01756000EA0079800706016035046317311
B1030135358330N01755993EA0080000709016035046337322
B1030145358338N01755987EA0080200711016032048350345
B1030155358346N01755985EA0080300714016033047008002
B1030165358354N01755987EA0080400716016035047017024
B1030175358360N01755990EA0080500718016034045037040
B1030185358363N01755993EA0080600721016032037054050
B1030195358366N01755999EA0080600724016032022071072
B1030205358368N01756004EA0080700727016029022076089
B1030215358369N01756008EA0080800730016030021089097
B1030225358369N01756012EA0080800734016030018094111
B1030235358369N01756017EA0080900738016028013105114
B1030245358368N01756020EA0081100742016026013116124
B1030255358367N01756023EA0081200747016025012133130
B1030265358366N01756025EA0081300751016024012151140
B1030275358364N01756027EA0081400755016024011150143
B1030285358362N01756028EA0081500759016023012148148
B1030295358361N01756030EA0081500762016022012132149
B1030305358359N01756033EA0081700766016020013133142
B1030315358357N01756036EA0081800770016019018134142
B1030325358354N01756040EA0081900773016018020134134
B1030335358351N01756045EA0081900777016017018122135
B1030345358349N01756047EA0082100781016017018109131
B1030355358348N01756051EA0082200785016014017111127
B1030365358346N01756053EA0082400788016013018131127
B1030375358344N01756057EA0082600792016013018132140
B1030385358342N01756061EA0082800796016012018137139
B1030395358340N01756063EA0083000800016011013160146
B1030405358338N01756063EA0083200805016013013198160
B1030415358335N01756061EA0083500809016013013252181
B1030425358334N01756054EA0083700813016012016247202
B1030435358332N01756046EA0083900817016011031268234
B1030445358332N01756037EA0084200821016012042289249
B1030455358335N01756026EA0084400825016011042300291
B1030465358339N01756015EA0084600829016011050317316
B1030475358345N01756006EA0084700833016009053338340
B1030485358353N01756001EA0085100837016009053346354
B1030495358360N01755997EA0085300841016009053004005
B1030505358367N01755999EA0085500845016010049022021
B1030515358371N01756003EA0085800848016010031042034
B1030525358374N01756009EA0086000852016009031058060
B1030535358375N01756015EA0086200855006010028075080
B1030545358376N01756022EA0086400859006009025093097
B1030555358375N01756026EA0086600862006008017137119
B1030565358371N01756029EA0086800864008009022163145
B1030575358368N01756031EA0087000867008010018191168
B1030585358364N01756030EA0087200869006009021217188
B1030595358362N01756026EA0087400871006008029267196
B1031005358362N01756018EA0087700873006008036280248
B1031015358363N01756008EA0087900875006007036290262
B1031025358366N01755997EA0088100877008008040295283
B1031035358369N01755987EA0088300878008008045315302
B1031045358374N01755979EA0088500880006007046326319
B1031055358380N01755972EA0088700881006007046340331
B1031065358386N01755968EA0089200883006007046345349
B1031075358393N01755968EA0089400885008010039007000
B1031085358398N01755971EA0089600886008010039036022
B1031095358402N01755978EA0089900888008010037049053
B1031105358405N01755984EA0090100889008010031070067
B1031115358407N01755990EA0090300891006010023092092
B1031125358407N01755996EA0090500893006009023108109
B1031135358405N01756000EA0090700894006009018121123
B1031145358404N01756004EA0090900896006010017118135
B1031155358402N01756006EA0091100898008010008122134
B1031165358401N01756007EA0091300900008011008128146
B1031175358401N01756009EA0091500901008011006210159
B1031185358399N01756007EA0091800903008011006263181
B1031195358398N01755999EA0092000904008012036264199
B1031205358399N01755989EA0092100905008012047285247
B1031215358400N01755976EA0092200907008012047309278
B1031225358406N01755965EA0092300908008011053318307
B1031235358412N01755956EA0092500909008011053334326
B1031245358419N01755951EA0092700911008011053349339
B1031255358426N01755949EA0092900912008012052001358
B1031265358432N01755949EA0093100913012013046007015
B1031275358438N01755951EA0093400914012014034024031
B1031285358442N01755954EA0093700915012013034052054
B1031295358445N01755960EA0094000916008013029074077
B1031305358446N01755967EA0094300918008012029090096
B1031315358446N01755973EA0094500919008013018114112
B1031325358445N01755977EA0094700920008014018150136
B1031335358443N01755981EA0094900922008013015176150
B1031345358440N01755981EA0095000923008011015215165
B1031355358438N01755977EA0095200925008011024245185
B1031365358436N01755971EA0095400926008011033263216
B1031375358436N01755962EA0095500928008010033267240
B1031385358436N01755951EA0095700929008010037288267
B1031395358438N01755940EA0095800931006010051305287
B1031405358443N01755930EA0096000933006010052319307
B1031415358448N01755921EA0096100934008011051330322
B1031425358455N01755917EA0096300936008011050343337
B1031435358462N01755915EA0096500937008013044348348
B1031445358468N01755914EA0096800938012015044355001
B1031455358474N01755915EA0097000939008015043017013
B1031465358479N01755919EA0097300941008014038028034
B1031485358487N01755929EA0097700943008014028061064
B1031495358489N01755936EA0097800945008014028069084
B1031505358491N01755942EA0097900946008014026074091
B1031515358492N01755948EA0098000947008014024077097
B1031525358493N01755953EA0098100948008014020098105
B1031535358492N01755958EA0098300949008014020105116
B1031545358491N01755964EA0098400950008013020122121
B1031555358490N01755968EA0098500952008016020121132
B1031565358489N01755972EA0098600953008015016122132
B1031575358488N01755976EA0098700954008015016121136
B1031585358486N01755980EA0098800955008016016125146
B1031595358485N01755982EA0098900956008016014137135
B1032005358484N01755984EA0098900957008015013166142
B1032015358481N01755985EA0099000957008016017204158
B1032025358479N01755982EA0099000958008015017215172
B1032035358477N01755978EA0099100959008014020233184
B1032045358476N01755974EA0099100961008013020236193
B1032055358474N01755969EA0099200962008013022238208
B1032065358474N01755963EA0099300963008013022239208
B1032075358472N01755957EA0099400964008013022244209
B1032085358471N01755951EA0099500965008015028250234
B1032095358470N01755943EA0099700966008016032256224
B1032105358469N01755934EA0099800967008015032262239
B1032115358469N01755924EA0099900968008014036275255
B1032125358470N01755913EA0100000969008014041296263
B1032135358473N01755904EA0100200970008014043319287
B1032145358478N01755896EA0100300971008013043330301
B1032155358484N01755891EA0100500972008013047344333
B1032165358491N01755888EA0100600974008013050003351
B1032175358498N01755889EA0100700974008013050019014
B1032185358505N01755893EA0100700975008012046027032
B1032195358510N01755899EA0100700976008012046034044
B1032205358516N01755905EA0100800977008014039037049
B1032215358520N01755911EA0100900978008014039049056
B1032225358523N01755918EA0101000979008014034052068
B1032235358526N01755925EA0101200980008014033050073
B1032245358530N01755931EA0101400982008014032050074
B1032255358533N01755937EA0101600983012014032050072
B1032265358536N01755943EA0101800984012016030060090
B1032275358538N01755949EA0102000985012016028070087
B1032285358538N01755954EA0102200986008016020088103
B1032295358538N01755959EA0102400987008016020122116
B1032305358537N01755962EA0102500988008015018159136
B1032315358534N01755963EA0102600989006014018192160
B1032325358531N01755961EA0102700990008015026215180
B1032335358528N01755957EA0102700992008014028258203
B1032345358527N01755949EA0102700993008014028274235
B1032355358528N01755938EA0102700995008014039292253
B1032365358531N01755927EA0102700996008014048308277
B1032375358536N01755917EA0102700997008014051322308
B1032385358542N01755909EA0102800999008014051330319
B1032395358549N01755904EA0102901000008014051340333
B1032405358556N01755900EA0103001002008013044348346
B1032415358562N01755899EA0103101003008012044355356
B1032425358568N01755899EA0103301005008012041010005
B1032435358573N01755901EA0103601006008013041011026
B1032445358579N01755904EA0103901006008012038017030
B1032455358585N01755907EA0104101007008013038028043
B1032465358589N01755911EA0104301008008013036045061
B1032475358593N01755917EA0104501009008014033058066
B1032485358595N01755924EA0104601010008013030071081
B1032495358596N01755931EA0104501011008013030074095
B1032505358597N01755937EA0104501012008012029098101
B1032515358597N01755942EA0104401013008012021130115
B1032525358595N01755945EA0104401014008012014164137
B1032535358593N01755945EA0104401015008013017195157
B1032545358590N01755944EA0104401016008014017217175
B1032555358588N01755940EA0104401017008015020236192
B1032565358585N01755934EA0104401018008015030246210
B1032575358584N01755927EA0104401018008015036257232
B1032585358583N01755917EA0104401019008015036271238
B1032595358584N01755906EA0104301020008014042285251
B1033005358586N01755895EA0104201021006013045288269
B1033015358588N01755884EA0104201022006011046290275
B1033025358591N01755873EA0104101023006011046299277
B1033035358594N01755863EA0104101025006011047311290
B1033045358598N01755854EA0104201026008010047317303
B1033055358604N01755846EA0104501027008013047319312
B1033065358609N01755839EA0104701028008013046319318
B1033075358614N01755832EA0105001030008013046322318
B1033085358620N01755825EA0105201031008013046332320
B1033095358626N01755819EA0105501032008014048340338
B1033105358633N01755813EA0105801033008013047352356
B1033115358639N01755813EA0106101034008012047013015
B1033125358645N01755816EA0106301035008011034025034
B1033135358648N01755820EA0106501035008011034045071
B1033145358650N01755824EA0106601037008013020109086
B1033155358647N01755830EA0106601038008013020192128
B1033165358642N01755829EA0106601039008012038201177
B1033175358637N01755827EA0106601041008013038206196
B1033185358633N01755822EA0106601043008013034212204
B1033195358631N01755817EA0106601045012016030243202
B1033205358631N01755811EA0106701047012017027279219
B1033215358631N01755802EA0106801048012018038291241
B1033225358634N01755791EA0107201049016020038294265
B1033235358636N01755780EA0107401049016019041318279
B1033245358640N01755769EA0107601049016019042320301
B1033255358644N01755759EA0107801050008017049323317
B1033265358650N01755749EA0107901050008017049333327
B1033275358657N01755743EA0108001051008016050344337
B1033285358664N01755739EA0108101051008016053352359
B1033295358672N01755738EA0108201052008015053005003
B1033305358679N01755740EA0108201053008015051017020
B1033315358685N01755745EA0108301054008014047027031
B1033325358689N01755750EA0108401054008014031047052
B1033335358692N01755756EA0108501055012015031058069
B1033345358695N01755761EA0108601057012014026066082
B1033355358697N01755766EA0108701058008014022077091
B1033365358698N01755770EA0108801060008013013106105
B1033375358698N01755773EA0108901061008012014121121
B1033385358697N01755777EA0108901062008013014139141
B1033395358695N01755779EA0108901063006012015167144
B1033405358693N01755780EA0108901065006011016163151
B1033415358690N01755781EA0108801066006011018159154
B1033425358688N01755783EA0108801068012015016161145
B1033435358686N01755783EA0108801069012015016143148
B1033445358685N01755785EA0108801070012016011110148
B1033455358685N01755789EA0108901071012014015133135
B1033465358683N01755792EA0109001071008014015135141
B1033475358682N01755795EA0109101072008013018116141
B1033485358681N01755799EA0109201073008013019109137
B1033495358680N01755804EA0109201074008012019112127
B1033505358679N01755808EA0109201074008012019115129
B1033515358677N01755812EA0109301075008011019115129
B1033525358677N01755817EA0109301076008010019115130
B1033535358676N01755822EA0109401076006010019115129
B1033545358675N01755826EA0109501077006010019116129
B1033555358673N01755830EA0109501078006009020116127
B1033565358672N01755835EA0109501079006009021115129
B1033575358671N01755841EA0109401080008010023115131
B1033585358669N01755846EA0109401081008011023115127
B1033595358668N01755852EA0109301082008011025117128
B1034005358666N01755858EA0109301083008010027120128
B1034015358663N01755864EA0109301084008010029123129
B1034025358661N01755870EA0109401086008010027128132
B1034035358658N01755873EA0109401087008010026143130
B1034045358655N01755876EA0109501088006009023128137
B1034055358652N01755881EA0109501090006009029118139
B1034065358650N01755887EA0109601091006008028117135
B1034075358648N01755893EA0109601092006008028122126
B1034085358645N01755898EA0109601093006008024128131
B1034095358643N01755902EA0109701094006008024121135
B1034105358641N01755904EA0109801095006008017118131
B1034115358641N01755908EA0110201096006008014132139
B1034125358639N01755910EA0110501097006008011134155
B1034135358638N01755912EA0110801098008009017184164
B1034145358634N01755912EA0111001099008010017182181
B1034155358630N01755912EA0111201100008010023220167
B1034165358627N01755907EA0111401101008010029242214
B1034175358626N01755900EA0111601103012012029271231
B1034185358625N01755892EA0111801104012015029288269
B1034195358627N01755885EA0112101106016017029293286
B1034205358629N01755876EA0112401106016020035328267
B1034215358634N01755872EA0112701106016020042349329
B1034225358640N01755870EA0112901107016025042028000
B1034235358644N01755878EA0113101107012022042038041
B1034245358649N01755883EA0113301108012021030063059
B1034255358651N01755890EA0113501109012018030075089
B1034265358653N01755897EA0113701109012018030102101
B1034275358652N01755903EA0113901110008016024125121
B1034285358650N01755907EA0114401112008015023154139
B1034295358647N01755910EA0114601113008015026162157
B1034305358643N01755913EA0114801114008013026171170
B1034315358639N01755913EA0115001115012014028197189
B1034325358636N01755911EA0115201116012015021253204
B1034335358636N01755904EA0115501117012016034293239
B1034345358639N01755893EA0115701118012017034312283
B1034355358643N01755884EA0116001120016018046330309
B1034365358650N01755876EA0116201121012018050337336
B1034375358656N01755870EA0116401123016019050005352
B1034385358664N01755871EA0116601124016019049023005
B1034395358669N01755876EA0116801126016020044039038
B1034405358674N01755883EA0117001128016019036053057
B1034415358677N01755891EA0117301130012019036062076
B1034425358680N01755898EA0117501132012019033080084
B1034435358681N01755907EA0117701134012019033084099
B1034445358682N01755916EA0118101136012019033091102
B1034455358683N01755924EA0118301138012020033091110
B1034465358684N01755931EA0118501140012018029102113
B1034475358684N01755934EA0118701141012018018116120
B1034485358683N01755936EA0118901143012018008178138
B1034495358682N01755935EA0119201144012019015223161
B1034505358681N01755930EA0119401145012018015238194
B1034515358678N01755924EA0119601147012017028253203
B1034525358678N01755915EA0119701148012016037287235
B1034535358680N01755907EA0119801150012018044301265
B1034545358684N01755898EA0119901153012016044308297
B1034555358689N01755890EA0120001154012017047333305
B1034565358696N01755884EA0120201156012018050345334
B1034575358703N01755883EA0120301158012018053002350
B1034585358711N01755886EA0120501160012019053011015
B1034595358718N01755890EA0120701161012020053030027
B1035005358724N01755897EA0121101163016021044044043
B1035015358729N01755905EA0121301165016021044051062
B1035025358734N01755915EA0121501166016021044052070
B1035035358737N01755924EA0121701168016020043055074
B1035045358740N01755932EA0121901170012020032064076
B1035055358742N01755938EA0122201172012020032072087
B1035065358744N01755944EA0122401173012021025082099
B1035075358745N01755949EA0122601175012022020113111
B1035085358743N01755954EA0122701176012021020145136
B1035095358741N01755957EA0122801177012018020146166
B1035105358739N01755959EA0122801178006016020189149
B1035115358734N01755957EA0122801178008016022189174
B1035125358729N01755956EA0122701178008019048199175
B1035135358723N01755950EA0122601179016022000359189
B1035145358719N01755942EA0122501180016032048303189
B1035155358722N01755933EA0122501179016035048314292
B1035165358728N01755924EA0122501180016031051331307
B1035175358735N01755918EA0122501180016031053339330
B1035185358742N01755914EA0122501180016029051340341
B1035195358749N01755911EA0122601181016028050000342
B1035205358758N01755913EA0122601183016031056009009
B1035215358766N01755916EA0122701184016028056016022
B1035225358774N01755920EA0122801186016027054018028
B1035235358780N01755925EA0122901187016028052031031
B1035245358785N01755930EA0123101187016028034049045
B1035255358788N01755938EA0123201188016026034061076
B1035265358790N01755945EA0123301189016025031065079
B1035275358791N01755952EA0123501189016025027065092
B1035285358793N01755959EA0123501190016024028072098
B1035295358794N01755966EA0123501190016022032082097
B1035305358795N01755975EA0123501191016023032089102
B1035315358795N01755985EA0123301191016022037092107
B1035325358795N01755996EA0123101191016028040092108
B1035335358794N01756006EA0122501192024040040092107
B1035345358794N01756015EA0122201193024036040090112
B1035355358793N01756023EA0122001193024035034090105
B1035365358793N01756031EA0121801193024033029089107
B1035375358794N01756038EA0121801193016029029089108
B1035385358793N01756045EA0121701193016026029087108
B1035395358794N01756054EA0121701193016025034088107
B1035405358793N01756064EA0121601193016027040090106
B1035415358793N01756074EA0121401193016026040092105
B1035425358793N01756082EA0121301193016027037092106
B1035435358792N01756090EA0121101193016025033091108
B1035445358792N01756098EA0120901193016023032092109
B1035455358792N01756106EA0120901193016023032094110
B1035465358791N01756113EA0120801193016023032094111
B1035485358792N01756127EA0121001193016021024086109
B1035505358794N01756135EA0121301193016020022093110
B1035525358794N01756143EA0121701193016019023080116
B1035545358798N01756155EA0122001194016017031065104
B1035565358801N01756163EA0122401196016016023079117
B1035585358802N01756172EA0122701198016021019125134
B1036005358799N01756178EA0123001199012019016200159
B1036025358796N01756169EA0123101200012018019255202
B1036045358796N01756153EA0123201201016022036296246
B1036065358804N01756130EA0123201202012022049311297
B1036085358815N01756109EA0123301203016021052334327
B1036105358829N01756099EA0123601205016020049356354
B1036125358844N01756101EA0124001206012019049009020
B1036145358861N01756108EA0124501208012019059013027
B1036165358875N01756117EA0124801210012018047030049
B1036185358885N01756127EA0125101213012018035052063
B1036205358890N01756141EA0125301215008016034077085
B1036225358892N01756158EA0125301218008016030086106
B1036245358893N01756173EA0125201221008014032086107
B1036265358893N01756191EA0125201223008014034107113
B1036285358889N01756209EA0125101225008013038111122
B1036305358887N01756225EA0125201227008012031102119
B1036325358886N01756238EA0125601229012012027099120
B1036335358885N01756249EA0126201230012016023100123
B1036355358884N01756261EA0126801232012017022120136
B1036375358881N01756267EA0127501234012016014165145
B1036395358878N01756263EA0127901236012018016194185
B1036415358873N01756263EA0128201238012018016138159
B1036435358870N01756269EA0128401241012017019100138
B1036455358871N01756279EA0128601244012016020077109
B1036475358874N01756293EA0128801247012016032074101
B1036495358876N01756307EA0129001250012015026093103
B1036515358875N01756318EA0129401253012014024090116
B1036535358874N01756329EA0129901257012016022085115
B1036545358875N01756335EA0130201258012016022087114
B1036555358875N01756340EA0130601260012018022089118
B1036565358875N01756346EA0130901261012018021089115
B1036575358875N01756351EA0131101263012018022092115
B1036585358874N01756357EA0131401265016022022094117
B1036595358874N01756363EA0131701267016025023095118
B1037005358872N01756371EA0132101268016023028092117
B1037015358872N01756378EA0132401270016024028089123
B1037025358872N01756385EA0132701272016026028091139
B1037035358871N01756391EA0133101274016027026103113
B1037045358870N01756396EA0133401275016027019112122
B1037055358871N01756400EA0133701277016026019163131
B1037065358870N01756401EA0133901278016026008179159
B1037075358872N01756396EA0134301280016026000274163
B1037085358874N01756395EA0134501280016032041081154
B1037095358874N01756399EA0134601282016041000359099
B1037105358875N01756394EA0134701284016039000359099
B1037115358880N01756390EA0134801286016038049347099
B1037125358888N01756382EA0134901288016034054010352
B1037135358897N01756384EA0135001291016030060019022
B1037145358905N01756387EA0135001292012026060027031
B1037155358914N01756392EA0135101294012023061029041
B1037165358923N01756399EA0135201296012021053045042
B1037175358929N01756408EA0135401298012021053051062
B1037185358932N01756418EA0135601301012020053077068
B1037195358933N01756426EA0135901303012020036103092
B1037205358931N01756431EA0136201305012020025128119
B1037215358928N01756436EA0136601307012022025151139
B1037225358925N01756439EA0137201309016024024179153
B1037235358921N01756440EA0137501311016025020209170
B1037245358918N01756437EA0137901313016024022244186
B1037255358916N01756432EA0138201315012023024283210
B1037275358917N01756425EA0138501318012021024304243
B1037285358921N01756417EA0138701320012021036324267
B1037295358926N01756410EA0138901324012020045339315
B1037305358932N01756405EA0139101326008019048349334
B1037315358939N01756404EA0139201329012018048353355
B1037325358947N01756403EA0139401332012018049003003
B1037335358955N01756405EA0139601334012021054015020
B1037345358963N01756410EA0139801337012021055027038
B1037355358969N01756417EA0140001339012022054050049
B1037365358975N01756427EA0140201341012020051064071
B1037375358979N01756437EA0140401343012021043077086
B1037385358980N01756448EA0140901346012021043085102
B1037395358981N01756458EA0141101348012021039103103
B1037405358980N01756466EA0141401350012024032120123
B1037415358978N01756472EA0141701353016027025122129
B1037425358977N01756478EA0142001356016029025121140
B1037435358974N01756480EA0142401358016029021138143
B1037445358972N01756482EA0142701359016029017137148
B1037455358971N01756483EA0143101361016028014175165
B1037465358969N01756483EA0143401363012026016194180
B1037475358967N01756482EA0143601364012025014229178
B1037485358966N01756480EA0143801365016027016296211
B1037495358968N01756474EA0143901367012027030321241
B1037505358972N01756469EA0143901369012025036335282
B1037515358977N01756464EA0143901371012027036351337
B1037525358983N01756462EA0143801372016028042356357
B1037535358990N01756462EA0143801374016027048002019
B1037545358998N01756462EA0143701375016026050005026
B1037555359006N01756463EA0143601377016026049033028
B1037565359012N01756470EA0143601378012025050051056
B1037575359017N01756480EA0143701380012024050058069
B1037585359020N01756490EA0143801381012023050068078
B1037595359022N01756501EA0144001383012022045076094
B1038005359023N01756510EA0144201384012021038084097
B1038015359022N01756517EA0144601386012023025092109
B1038025359022N01756523EA0145001388012022025100117
B1038035359022N01756526EA0145301389012022018125124
B1038045359021N01756529EA0145701390008024015137134
B1038055359020N01756532EA0146001391012028016134149
B1038065359019N01756535EA0146301393012027019107144
B1038075359018N01756541EA0146401394008025019105134
B1038085359017N01756546EA0146501395008023021113148
B1038095359016N01756552EA0146501396008023020139145
B1038105359014N01756554EA0146501397008023020187148
B1038115359011N01756554EA0146401398012023020208173
B1038125359009N01756552EA0146401400012021020224167
B1038135359007N01756549EA0146401401012020014257175
B1038145359007N01756545EA0146401402012024017267205
B1038155359007N01756540EA0146501404012022017257205
B1038165359007N01756534EA0146501405012025018247215
B1038175359005N01756528EA0146501406012023028255207
B1038185359005N01756520EA0146401407016029036277244
B1038195359006N01756511EA0146201408012031036304258
B1038205359010N01756503EA0146001409012034037316265
B1038215359014N01756496EA0145801409012037040325287
B1038225359019N01756491EA0145601410012038040316315
B1038235359023N01756484EA0145501410012040040313300
B1038245359029N01756476EA0145401411012036040322297
B1038255359035N01756469EA0145301412012034052323304
B1038265359042N01756461EA0144901412012031053321316
B1038275359047N01756452EA0144801413016029052312306
B1038285359052N01756442EA0144701414012029050314303
B1038295359057N01756432EA0144601415012026047315305
B1038305359062N01756424EA0144601415012023047320290
B1038315359068N01756417EA0144601416012020047321302
B1038325359074N01756409EA0144701418008018047318303
B1038335359078N01756402EA0144701419008016039313307
B1038345359082N01756396EA0144801420008015039311301
B1038355359085N01756390EA0144901421008015035314300
B1038365359089N01756383EA0144901422008013035323294
B1038375359095N01756376EA0144901423008013045321301
B1038385359100N01756369EA0144901424008013046317310
B1038395359105N01756361EA0144801425008012045314306
B1038405359110N01756353EA0144701426008012045316301
B1038415359115N01756345EA0144401427008011045317303
B1038425359120N01756338EA0144201428008011046318305
B1038435359125N01756330EA0144101430006010046318306
B1038445359130N01756322EA0144101431006010047317306
B1038455359136N01756314EA0144001432006010047318306